createdAt,value
2019-01-15T00:00:31.053Z,51.20
2019-01-15T00:03:11.205Z,51.10
2019-01-15T00:05:51.416Z,51.10
2019-01-15T00:08:31.691Z,51.10
2019-01-15T00:11:11.885Z,51.10
2019-01-15T00:13:52.036Z,51.10
2019-01-15T00:16:31.958Z,51.10
2019-01-15T00:19:12.177Z,51.00
2019-01-15T00:21:52.393Z,51.00
2019-01-15T00:24:32.605Z,51.00
2019-01-15T00:27:12.774Z,51.00
2019-01-15T00:29:52.808Z,51.00
2019-01-15T00:32:33.253Z,51.00
2019-01-15T00:35:13.497Z,50.90
2019-01-15T00:37:53.879Z,50.90
2019-01-15T00:40:34.402Z,50.90
2019-01-15T00:43:14.730Z,50.90
2019-01-15T00:45:54.997Z,50.90
2019-01-15T00:48:35.489Z,50.80
2019-01-15T00:51:16.021Z,50.70
2019-01-15T00:53:56.288Z,50.80
2019-01-15T00:56:36.507Z,50.80
2019-01-15T00:59:16.735Z,50.80
2019-01-15T01:01:56.900Z,50.80
2019-01-15T01:04:37.258Z,50.80
2019-01-15T01:07:17.457Z,50.60
2019-01-15T01:09:57.558Z,50.80
2019-01-15T01:12:37.760Z,50.60
2019-01-15T01:15:17.716Z,50.60
2019-01-15T01:17:57.896Z,50.80
2019-01-15T01:20:38.262Z,50.60
2019-01-15T01:23:18.357Z,50.60
2019-01-15T01:25:58.268Z,50.70
2019-01-15T01:28:38.556Z,50.60
2019-01-15T01:31:18.933Z,50.60
2019-01-15T01:34:02.457Z,50.60
2019-01-15T01:36:42.032Z,50.60
2019-01-15T01:39:22.540Z,50.50
2019-01-15T01:42:02.800Z,50.60
2019-01-15T01:44:43.098Z,50.50
2019-01-15T01:47:23.253Z,50.50
2019-01-15T01:50:03.385Z,50.50
2019-01-15T01:52:43.689Z,50.50
2019-01-15T01:55:23.908Z,50.50
2019-01-15T01:58:04.131Z,50.50
2019-01-15T02:00:44.348Z,50.50
2019-01-15T02:03:24.532Z,50.50
2019-01-15T02:06:04.864Z,50.50
2019-01-15T02:08:45.063Z,50.50
2019-01-15T02:11:25.077Z,50.50
2019-01-15T02:14:05.152Z,50.50
2019-01-15T02:16:45.288Z,50.40
2019-01-15T02:19:25.538Z,50.40
2019-01-15T02:22:05.782Z,50.40
2019-01-15T02:24:46.164Z,50.40
2019-01-15T02:27:26.495Z,50.40
2019-01-15T02:30:06.712Z,50.40
2019-01-15T02:32:46.847Z,50.40
2019-01-15T02:35:27.028Z,50.40
2019-01-15T02:38:07.221Z,50.40
2019-01-15T02:40:47.769Z,50.50
2019-01-15T02:43:27.739Z,50.40
2019-01-15T02:46:08.021Z,50.40
2019-01-15T02:48:48.019Z,50.40
2019-01-15T02:51:28.447Z,50.40
2019-01-15T02:54:08.836Z,50.40
2019-01-15T02:56:49.145Z,50.40
2019-01-15T02:59:29.277Z,50.40
2019-01-15T03:02:09.388Z,50.40
2019-01-15T03:04:49.282Z,50.40
2019-01-15T03:07:29.540Z,50.40
2019-01-15T03:10:10.060Z,50.40
2019-01-15T03:12:55.880Z,50.40
2019-01-15T03:15:33.881Z,50.30
2019-01-15T03:18:14.344Z,50.30
2019-01-15T03:20:54.543Z,50.40
2019-01-15T03:23:34.785Z,50.40
2019-01-15T03:26:14.855Z,50.40
2019-01-15T03:28:55.049Z,50.40
2019-01-15T03:31:35.369Z,50.30
2019-01-15T03:34:15.684Z,50.40
2019-01-15T03:36:55.909Z,50.40
2019-01-15T03:39:36.125Z,50.30
2019-01-15T03:42:16.711Z,50.40
2019-01-15T03:44:56.889Z,50.30
2019-01-15T03:47:37.117Z,50.30
2019-01-15T03:50:17.304Z,50.30
2019-01-15T03:52:57.662Z,50.30
2019-01-15T03:55:37.376Z,50.30
2019-01-15T03:58:17.645Z,50.30
2019-01-15T04:00:57.845Z,50.30
2019-01-15T04:03:38.360Z,50.30
2019-01-15T04:06:18.292Z,50.20
2019-01-15T04:08:58.362Z,50.20
2019-01-15T04:11:38.923Z,50.30
2019-01-15T04:14:18.636Z,50.30
2019-01-15T04:16:58.597Z,50.30
2019-01-15T04:19:38.937Z,50.10
2019-01-15T04:22:18.830Z,50.30
2019-01-15T04:24:58.953Z,50.30
2019-01-15T04:27:39.148Z,50.90
2019-01-15T04:30:19.443Z,50.30
2019-01-15T04:32:59.585Z,50.20
2019-01-15T04:35:39.857Z,50.20
2019-01-15T04:38:20.004Z,50.30
2019-01-15T04:41:00.229Z,50.30
2019-01-15T04:43:40.246Z,50.20
2019-01-15T04:46:20.029Z,50.20
2019-01-15T04:49:00.294Z,50.20
2019-01-15T04:51:40.768Z,50.20
2019-01-15T04:54:21.013Z,50.20
2019-01-15T04:57:01.517Z,50.20
2019-01-15T04:59:41.665Z,50.10
2019-01-15T05:02:21.934Z,50.20
2019-01-15T05:05:02.267Z,50.20
2019-01-15T05:07:42.539Z,50.20
2019-01-15T05:10:22.858Z,50.20
2019-01-15T05:13:03.107Z,50.20
2019-01-15T05:15:43.268Z,50.20
2019-01-15T05:18:23.295Z,50.20
2019-01-15T05:21:03.491Z,50.20
2019-01-15T05:23:43.737Z,50.20
2019-01-15T05:26:23.985Z,50.10
2019-01-15T05:29:04.068Z,50.10
2019-01-15T05:31:44.468Z,50.10
2019-01-15T05:34:24.841Z,50.10
2019-01-15T05:37:04.851Z,50.10
2019-01-15T05:39:44.911Z,50.10
2019-01-15T05:42:25.407Z,50.20
2019-01-15T05:45:05.989Z,50.20
2019-01-15T05:47:46.486Z,50.20
2019-01-15T05:53:25.459Z,50.10
2019-01-15T05:56:05.493Z,50.10
2019-01-15T05:58:45.605Z,50.10
2019-01-15T06:01:26.153Z,50.10
2019-01-15T06:04:06.237Z,50.10
2019-01-15T06:06:46.388Z,50.10
2019-01-15T06:09:26.433Z,50.10
2019-01-15T06:12:07.079Z,50.00
2019-01-15T06:14:47.200Z,50.00
2019-01-15T06:17:27.568Z,50.10
2019-01-15T06:20:07.857Z,50.10
2019-01-15T06:22:48.305Z,50.00
2019-01-15T06:25:28.293Z,50.00
2019-01-15T06:28:08.541Z,49.90
2019-01-15T06:30:48.916Z,50.10
2019-01-15T06:33:28.596Z,50.10
2019-01-15T06:36:09.065Z,50.10
2019-01-15T06:38:49.180Z,50.10
2019-01-15T06:41:29.434Z,50.10
2019-01-15T06:44:09.630Z,50.00
2019-01-15T06:46:49.802Z,50.00
2019-01-15T06:49:30.285Z,50.00
2019-01-15T06:52:10.409Z,50.00
2019-01-15T06:54:50.380Z,50.00
2019-01-15T06:57:30.672Z,50.00
2019-01-15T07:00:10.749Z,50.00
2019-01-15T07:02:50.830Z,50.00
2019-01-15T07:05:30.900Z,50.00
2019-01-15T07:08:11.234Z,50.10
2019-01-15T07:10:51.072Z,49.90
2019-01-15T07:13:31.591Z,49.90
2019-01-15T07:16:12.174Z,49.90
2019-01-15T07:18:52.426Z,49.90
2019-01-15T07:21:33.000Z,49.90
2019-01-15T07:24:12.920Z,49.90
2019-01-15T07:26:52.816Z,49.90
2019-01-15T07:29:32.864Z,49.90
2019-01-15T07:32:13.179Z,49.90
2019-01-15T07:34:53.410Z,49.90
2019-01-15T07:37:33.683Z,49.90
2019-01-15T07:40:13.937Z,49.90
2019-01-15T07:42:54.133Z,49.90
2019-01-15T07:45:34.514Z,49.90
2019-01-15T07:48:14.700Z,49.90
2019-01-15T07:50:55.141Z,49.90
2019-01-15T07:53:35.515Z,49.90
2019-01-15T07:56:15.918Z,49.90
2019-01-15T07:58:55.964Z,49.90
2019-01-15T08:01:36.149Z,49.90
2019-01-15T08:04:16.382Z,49.90
2019-01-15T08:06:56.758Z,49.90
2019-01-15T08:09:37.090Z,49.90
2019-01-15T08:12:17.201Z,49.90
2019-01-15T08:14:57.321Z,49.90
2019-01-15T08:17:39.978Z,49.90
2019-01-15T08:20:19.901Z,49.90
2019-01-15T08:22:59.984Z,49.90
2019-01-15T08:25:40.180Z,49.90
2019-01-15T08:28:20.740Z,49.90
2019-01-15T08:31:00.737Z,49.90
2019-01-15T08:33:40.945Z,49.90
2019-01-15T08:36:21.420Z,49.90
2019-01-15T08:39:05.115Z,49.90
2019-01-15T08:41:45.764Z,49.90
2019-01-15T08:44:27.335Z,49.90
2019-01-15T08:47:08.782Z,49.80
2019-01-15T08:49:48.838Z,49.90
2019-01-15T08:52:28.963Z,49.80
2019-01-15T08:55:09.267Z,49.90
2019-01-15T08:57:49.637Z,49.90
2019-01-15T09:00:27.259Z,49.80
2019-01-15T09:06:13.613Z,49.80
2019-01-15T09:08:53.886Z,50.40
2019-01-15T09:11:33.821Z,49.90
2019-01-15T09:14:14.320Z,49.80
2019-01-15T09:16:54.380Z,49.90
2019-01-15T09:19:34.860Z,49.90
2019-01-15T09:22:15.177Z,49.80
2019-01-15T09:24:55.439Z,49.80
2019-01-15T09:27:36.037Z,49.90
2019-01-15T09:30:16.230Z,49.90
2019-01-15T09:32:56.542Z,49.90
2019-01-15T09:35:36.715Z,49.90
2019-01-15T09:38:17.048Z,49.70
2019-01-15T09:40:58.156Z,49.90
2019-01-15T09:43:38.744Z,49.90
2019-01-15T09:46:18.797Z,49.90
2019-01-15T09:48:58.916Z,49.80
2019-01-15T09:51:39.130Z,49.80
2019-01-15T09:54:19.445Z,49.70
2019-01-15T09:56:59.659Z,49.80
2019-01-15T09:59:39.627Z,49.70
2019-01-15T10:02:20.060Z,49.80
2019-01-15T10:05:00.317Z,49.80
2019-01-15T10:07:40.473Z,49.70
2019-01-15T10:10:20.733Z,49.70
2019-01-15T10:13:01.809Z,49.80
2019-01-15T10:15:41.905Z,49.70
2019-01-15T10:18:22.700Z,49.80
2019-01-15T10:21:02.709Z,49.70
2019-01-15T10:23:42.962Z,49.70
2019-01-15T10:26:23.196Z,49.70
2019-01-15T10:29:03.562Z,49.70
2019-01-15T10:31:44.320Z,49.70
2019-01-15T10:34:24.174Z,49.70
2019-01-15T10:37:04.340Z,49.70
2019-01-15T10:39:45.114Z,50.30
2019-01-15T10:42:24.824Z,49.70
2019-01-15T10:56:41.245Z,49.10
2019-01-15T10:59:08.712Z,48.60
2019-01-15T11:01:36.378Z,49.00
2019-01-15T11:04:03.635Z,49.30
2019-01-15T11:06:31.002Z,49.30
2019-01-15T11:08:58.621Z,49.30
2019-01-15T11:11:26.188Z,49.40
2019-01-15T11:13:53.590Z,49.50
2019-01-15T11:16:21.135Z,49.50
2019-01-15T11:18:48.795Z,50.20
2019-01-15T11:21:16.431Z,49.50
2019-01-15T11:23:43.973Z,49.50
2019-01-15T11:26:11.284Z,49.50
2019-01-15T11:28:40.528Z,49.50
2019-01-15T11:31:08.467Z,49.50
2019-01-15T11:33:35.809Z,49.50
2019-01-15T11:36:03.155Z,49.50
2019-01-15T11:38:30.681Z,49.50
2019-01-15T11:40:58.148Z,49.50
2019-01-15T11:43:25.420Z,49.50
2019-01-15T11:45:52.950Z,49.50
2019-01-15T11:48:20.238Z,49.50
2019-01-15T11:50:47.644Z,49.50
2019-01-15T11:53:15.198Z,49.50
2019-01-15T11:55:42.721Z,49.50
2019-01-15T11:58:10.122Z,49.50
2019-01-15T12:00:44.155Z,49.50
2019-01-15T12:03:19.447Z,49.50
2019-01-15T12:06:09.468Z,49.50
2019-01-15T12:09:05.588Z,49.60
2019-01-15T12:12:02.617Z,49.60
2019-01-15T12:15:10.798Z,49.60
2019-01-15T12:18:03.337Z,49.60
2019-01-15T12:20:53.131Z,49.50
2019-01-15T12:23:38.894Z,49.60
2019-01-15T12:26:24.688Z,49.60
2019-01-15T12:28:59.515Z,49.60
2019-01-15T12:31:44.920Z,49.50
2019-01-15T12:34:30.864Z,49.60
2019-01-15T12:37:15.632Z,49.60
2019-01-15T12:40:01.486Z,49.60
2019-01-15T12:43:00.774Z,49.60
2019-01-15T12:45:46.757Z,49.60
2019-01-15T12:48:32.669Z,49.50
2019-01-15T12:51:22.470Z,49.60
2019-01-15T12:53:59.353Z,49.60
2019-01-15T12:56:45.066Z,49.60
2019-01-15T12:59:38.515Z,49.60
2019-01-15T13:02:31.119Z,49.60
2019-01-15T13:05:36.552Z,49.60
2019-01-15T13:08:22.235Z,49.60
2019-01-15T13:11:08.257Z,49.50
2019-01-15T13:13:51.875Z,49.60
2019-01-15T13:16:58.823Z,49.60
2019-01-15T13:19:35.708Z,49.60
2019-01-15T13:22:41.226Z,49.60
2019-01-15T13:25:46.781Z,49.60
2019-01-15T13:28:32.158Z,49.60
2019-01-15T13:31:22.137Z,49.70
2019-01-15T13:34:07.582Z,49.60
2019-01-15T13:37:00.738Z,49.60
2019-01-15T13:40:02.930Z,49.50
2019-01-15T13:42:59.527Z,49.60
2019-01-15T13:45:42.825Z,49.60
2019-01-15T13:48:29.988Z,49.60
2019-01-15T13:51:17.060Z,49.30
2019-01-15T13:54:17.462Z,49.60
2019-01-15T13:57:05.513Z,49.60
2019-01-15T13:59:55.308Z,49.60
2019-01-15T14:02:40.943Z,49.70
2019-01-15T14:05:28.594Z,49.60
2019-01-15T14:08:16.334Z,49.50
2019-01-15T14:11:03.374Z,49.50
2019-01-15T14:13:53.480Z,49.60
2019-01-15T14:16:40.553Z,49.60
2019-01-15T14:19:26.287Z,49.60
2019-01-15T14:22:12.149Z,49.50
2019-01-15T14:24:49.957Z,49.50
2019-01-15T14:27:35.377Z,49.60
2019-01-15T14:30:23.645Z,49.60
2019-01-15T14:33:19.783Z,49.60
2019-01-15T14:36:25.048Z,49.90
2019-01-15T14:39:30.213Z,49.60
2019-01-15T14:42:35.845Z,49.60
2019-01-15T14:45:23.964Z,49.60
2019-01-15T14:48:26.104Z,49.60
2019-01-15T14:51:15.696Z,49.60
2019-01-15T14:54:01.591Z,49.60
2019-01-15T14:56:40.385Z,49.60
2019-01-15T14:59:43.479Z,49.60
2019-01-15T15:02:20.270Z,49.60
2019-01-15T15:05:13.125Z,49.60
2019-01-15T15:08:01.280Z,49.60
2019-01-15T15:10:59.173Z,49.60
2019-01-15T15:13:52.717Z,49.90
2019-01-15T15:16:37.508Z,49.60
2019-01-15T15:19:24.879Z,49.60
2019-01-15T15:22:11.755Z,49.60
2019-01-15T15:25:05.628Z,49.60
2019-01-15T15:28:04.624Z,49.60
2019-01-15T15:30:51.661Z,49.60
2019-01-15T15:33:37.728Z,49.60
2019-01-15T15:36:23.860Z,49.60
2019-01-15T15:39:09.733Z,49.60
2019-01-15T15:41:55.728Z,49.60
2019-01-15T15:44:30.453Z,49.60
2019-01-15T15:47:23.004Z,49.60
2019-01-15T15:50:08.690Z,49.60
2019-01-15T15:52:54.470Z,49.60
2019-01-15T15:55:41.574Z,49.60
2019-01-15T15:58:41.023Z,49.60
2019-01-15T16:01:28.040Z,49.50
2019-01-15T16:04:24.134Z,49.60
2019-01-15T16:07:11.260Z,49.50
2019-01-15T16:10:09.467Z,49.60
2019-01-15T16:13:14.660Z,49.50
2019-01-15T16:15:58.484Z,49.60
2019-01-15T16:18:48.379Z,49.50
2019-01-15T16:21:33.772Z,49.60
2019-01-15T16:24:23.684Z,49.50
2019-01-15T16:27:09.338Z,49.50
2019-01-15T16:29:57.254Z,49.50
2019-01-15T16:32:42.887Z,49.60
2019-01-15T16:35:29.876Z,49.50
2019-01-15T16:38:15.487Z,49.50
2019-01-15T16:41:01.457Z,49.60
2019-01-15T16:43:54.328Z,49.50
2019-01-15T16:46:40.839Z,49.50
2019-01-15T16:49:33.522Z,49.50
2019-01-15T16:52:29.263Z,49.60
2019-01-15T16:55:18.851Z,49.50
2019-01-15T16:58:13.494Z,49.50
2019-01-15T17:01:06.296Z,49.60
2019-01-15T17:03:46.049Z,49.50
2019-01-15T17:06:31.324Z,49.60
2019-01-15T17:09:17.049Z,49.50
2019-01-15T17:12:03.332Z,49.50
2019-01-15T17:14:46.937Z,49.60
2019-01-15T17:17:42.939Z,49.60
2019-01-15T17:20:35.992Z,49.60
2019-01-15T17:23:21.554Z,49.60
2019-01-15T17:26:00.558Z,49.60
2019-01-15T17:28:55.828Z,49.60
2019-01-15T17:31:45.899Z,49.50
2019-01-15T17:34:33.070Z,49.60
2019-01-15T17:37:18.904Z,49.60
2019-01-15T17:40:05.943Z,49.80
2019-01-15T17:42:53.171Z,49.60
2019-01-15T17:45:38.885Z,49.60
2019-01-15T17:48:19.576Z,49.60
2019-01-15T17:51:12.938Z,49.60
2019-01-15T17:54:05.766Z,49.50
2019-01-15T17:56:54.782Z,49.60
2019-01-15T17:59:54.644Z,49.60
2019-01-15T18:02:40.544Z,49.60
2019-01-15T18:05:26.420Z,49.50
2019-01-15T18:08:25.945Z,49.60
2019-01-15T18:11:10.390Z,49.50
2019-01-15T18:13:56.460Z,49.50
2019-01-15T18:16:48.585Z,49.50
2019-01-15T18:19:34.821Z,49.50
2019-01-15T18:22:34.303Z,49.50
2019-01-15T18:25:18.348Z,49.60
2019-01-15T18:28:24.066Z,49.50
2019-01-15T18:31:14.841Z,49.50
2019-01-15T18:34:00.868Z,50.20
2019-01-15T18:36:47.700Z,49.60
2019-01-15T18:39:36.191Z,49.50
2019-01-15T18:42:21.859Z,49.50
2019-01-15T18:45:26.925Z,49.50
2019-01-15T18:48:12.612Z,49.60
2019-01-15T18:50:54.085Z,49.50
2019-01-15T18:53:41.840Z,49.50
2019-01-15T18:56:29.639Z,49.50
2019-01-15T18:59:28.846Z,49.50
2019-01-15T19:02:21.594Z,49.50
2019-01-15T19:05:01.201Z,49.50
2019-01-15T19:07:50.980Z,49.50
2019-01-15T19:10:36.541Z,49.50
2019-01-15T19:13:22.381Z,49.50
2019-01-15T19:16:18.918Z,49.50
2019-01-15T19:19:04.815Z,49.50
2019-01-15T19:21:54.700Z,49.50
2019-01-15T19:24:41.964Z,49.50
2019-01-15T19:27:25.763Z,49.60
2019-01-15T19:30:09.800Z,49.50
2019-01-15T19:33:09.054Z,49.50
2019-01-15T19:35:49.703Z,49.60
2019-01-15T19:38:29.352Z,49.50
2019-01-15T19:41:11.385Z,49.50
2019-01-15T19:43:59.472Z,49.50
2019-01-15T19:47:01.697Z,49.50
2019-01-15T19:49:48.834Z,49.60
2019-01-15T19:52:41.741Z,49.50
2019-01-15T19:55:28.723Z,49.60
2019-01-15T19:58:13.374Z,49.50
2019-01-15T20:01:06.464Z,49.50
2019-01-15T20:03:45.810Z,49.60
2019-01-15T20:06:35.847Z,49.50
2019-01-15T20:09:18.299Z,49.60
2019-01-15T20:11:55.081Z,49.50
2019-01-15T20:14:48.277Z,49.50
2019-01-15T20:17:44.196Z,49.50
2019-01-15T20:20:40.517Z,49.40
2019-01-15T20:23:45.867Z,49.40
2019-01-15T20:26:21.761Z,49.50
2019-01-15T20:29:08.039Z,49.40
2019-01-15T20:32:10.165Z,49.50
2019-01-15T20:35:01.547Z,49.60
2019-01-15T20:37:43.835Z,49.50
2019-01-15T20:40:29.936Z,49.40
2019-01-15T20:43:17.177Z,49.50
2019-01-15T20:46:09.796Z,49.50
2019-01-15T20:49:07.398Z,49.50
2019-01-15T20:51:44.180Z,49.50
2019-01-15T20:54:25.097Z,49.50
2019-01-15T20:57:10.700Z,49.50
2019-01-15T21:00:03.590Z,49.40
2019-01-15T21:02:51.972Z,49.40
2019-01-15T21:05:34.393Z,49.40
2019-01-15T21:08:39.860Z,49.50
2019-01-15T21:11:25.729Z,49.40
2019-01-15T21:14:11.748Z,50.10
2019-01-15T21:30:38.263Z,48.80
2019-01-15T21:33:28.508Z,48.40
2019-01-15T21:36:33.351Z,48.90
2019-01-15T21:39:18.907Z,49.10
2019-01-15T21:42:07.733Z,49.20
2019-01-15T21:44:51.191Z,49.20
2019-01-15T21:47:40.027Z,49.30
2019-01-15T21:50:21.120Z,49.30
2019-01-15T21:53:14.099Z,49.30
2019-01-15T21:55:55.861Z,49.30
2019-01-15T21:58:35.600Z,49.30
2019-01-15T22:01:20.869Z,49.30
2019-01-15T22:04:10.087Z,49.30
2019-01-15T22:06:56.135Z,49.30
2019-01-15T22:09:43.173Z,49.30
2019-01-15T22:12:35.800Z,49.30
2019-01-15T22:15:10.731Z,49.40
2019-01-15T22:17:58.493Z,49.40
2019-01-15T22:20:44.409Z,49.40
2019-01-15T22:23:28.739Z,49.40
2019-01-15T22:26:31.015Z,49.40
2019-01-15T22:29:17.246Z,49.40
2019-01-15T22:31:55.687Z,49.40
2019-01-15T22:34:40.289Z,49.50
2019-01-15T22:37:26.622Z,49.40
2019-01-15T22:40:16.644Z,49.40
2019-01-15T22:43:12.132Z,49.40
2019-01-15T22:45:58.149Z,49.50
2019-01-15T22:48:58.214Z,49.40
2019-01-15T22:51:46.888Z,49.40
2019-01-15T22:54:34.294Z,49.40
2019-01-15T22:57:31.648Z,49.40
2019-01-15T23:00:18.295Z,49.50
2019-01-15T23:03:08.761Z,49.40
2019-01-15T23:05:57.240Z,49.40
2019-01-15T23:08:53.093Z,49.40
2019-01-15T23:11:45.193Z,49.30
2019-01-15T23:14:33.775Z,50.10
2019-01-15T23:17:15.922Z,49.40
2019-01-15T23:20:04.214Z,49.30
2019-01-15T23:22:49.989Z,49.40
2019-01-15T23:25:46.559Z,49.40
2019-01-15T23:28:43.294Z,49.40
2019-01-15T23:31:35.452Z,49.30
2019-01-15T23:34:37.845Z,49.40
2019-01-15T23:37:24.958Z,49.40
2019-01-15T23:40:10.687Z,49.40
2019-01-15T23:42:49.199Z,49.40
2019-01-15T23:45:45.529Z,49.40
2019-01-15T23:48:30.947Z,49.40
2019-01-15T23:51:17.978Z,49.50
2019-01-15T23:53:58.424Z,49.40
2019-01-15T23:56:45.615Z,49.40
2019-01-15T23:59:35.543Z,49.40
